Ingleside, Canada
Current Conditions -  °F | °C
As of 9:40 PM on Saturday 20 Dec 2014 (Local Time) from KMSS Reporting Station
Haze Haze  
Wind Chill: 10°   Ceiling: 900
Heat Index: 10°   Visibility: 5mi
Dew Point:   Wind: 0mph
Humidity: 84%   Direction: NA
Pressure: 30.36"   Gusts: NA
Location:  45°N, 75°W
Report Text: KMSS 210240Z AUTO 00000KT 5SM BR BKN009 M12/M14 A3036 RMK AO2 T11221144
Loading
Personal Weather Stations






























Interactive Weather Map New forecast layout! Learn more

10-Day Weather Forecast

Advertisements
Track Severe Weather on mobile